sensor_id;sensor_type;location;lat;lon;timestamp;temperature;humidity
59309;DHT22;48433;53.016;-2.260;2023-08-01T00:00:22;14.30;99.90
59309;DHT22;48433;53.016;-2.260;2023-08-01T00:02:51;14.30;99.90
59309;DHT22;48433;53.016;-2.260;2023-08-01T00:05:19;14.30;99.90
59309;DHT22;48433;53.016;-2.260;2023-08-01T00:07:46;14.30;99.90
59309;DHT22;48433;53.016;-2.260;2023-08-01T00:10:14;14.40;99.90
59309;DHT22;48433;53.016;-2.260;2023-08-01T00:12:43;14.40;99.90
59309;DHT22;48433;53.016;-2.260;2023-08-01T00:15:11;14.40;99.90
59309;DHT22;48433;53.016;-2.260;2023-08-01T00:17:39;14.40;99.90
59309;DHT22;48433;53.016;-2.260;2023-08-01T00:20:07;14.40;99.90
59309;DHT22;48433;53.016;-2.260;2023-08-01T00:22:35;14.40;99.90
59309;DHT22;48433;53.016;-2.260;2023-08-01T00:25:03;14.40;99.90
59309;DHT22;48433;53.016;-2.260;2023-08-01T00:27:31;14.40;99.90
59309;DHT22;48433;53.016;-2.260;2023-08-01T00:30:07;14.30;99.90
59309;DHT22;48433;53.016;-2.260;2023-08-01T00:32:36;14.20;99.90
59309;DHT22;48433;53.016;-2.260;2023-08-01T00:35:04;14.20;99.90
59309;DHT22;48433;53.016;-2.260;2023-08-01T00:37:32;14.20;99.90
59309;DHT22;48433;53.016;-2.260;2023-08-01T00:39:59;14.10;99.90
59309;DHT22;48433;53.016;-2.260;2023-08-01T00:42:27;14.20;99.90
59309;DHT22;48433;53.016;-2.260;2023-08-01T00:44:55;14.20;99.90
59309;DHT22;48433;53.016;-2.260;2023-08-01T00:47:23;14.30;99.90
59309;DHT22;48433;53.016;-2.260;2023-08-01T00:49:51;14.30;99.90
59309;DHT22;48433;53.016;-2.260;2023-08-01T00:52:19;14.30;99.90
59309;DHT22;48433;53.016;-2.260;2023-08-01T00:54:47;14.30;99.90
59309;DHT22;48433;53.016;-2.260;2023-08-01T00:57:15;14.30;99.90
59309;DHT22;48433;53.016;-2.260;2023-08-01T00:59:42;14.30;99.90
59309;DHT22;48433;53.016;-2.260;2023-08-01T01:02:10;14.30;99.90
59309;DHT22;48433;53.016;-2.260;2023-08-01T01:04:39;14.30;99.90
59309;DHT22;48433;53.016;-2.260;2023-08-01T01:07:07;14.30;99.90
59309;DHT22;48433;53.016;-2.260;2023-08-01T01:09:36;14.30;99.90
59309;DHT22;48433;53.016;-2.260;2023-08-01T01:12:03;14.30;99.90
59309;DHT22;48433;53.016;-2.260;2023-08-01T01:14:31;14.30;99.90
59309;DHT22;48433;53.016;-2.260;2023-08-01T01:16:59;14.30;99.90
59309;DHT22;48433;53.016;-2.260;2023-08-01T01:19:27;14.30;99.90
59309;DHT22;48433;53.016;-2.260;2023-08-01T01:21:55;14.20;99.90
59309;DHT22;48433;53.016;-2.260;2023-08-01T01:24:23;14.20;99.90
59309;DHT22;48433;53.016;-2.260;2023-08-01T01:26:54;14.20;99.90
59309;DHT22;48433;53.016;-2.260;2023-08-01T01:29:23;14.10;99.90
59309;DHT22;48433;53.016;-2.260;2023-08-01T01:31:52;13.90;99.90
59309;DHT22;48433;53.016;-2.260;2023-08-01T01:34:21;13.90;99.90
59309;DHT22;48433;53.016;-2.260;2023-08-01T01:36:49;13.80;99.90
59309;DHT22;48433;53.016;-2.260;2023-08-01T01:39:17;13.80;99.90
59309;DHT22;48433;53.016;-2.260;2023-08-01T01:41:45;13.70;99.90
59309;DHT22;48433;53.016;-2.260;2023-08-01T01:44:13;13.60;99.90
59309;DHT22;48433;53.016;-2.260;2023-08-01T01:46:40;13.60;99.90
59309;DHT22;48433;53.016;-2.260;2023-08-01T01:49:09;13.60;99.90
59309;DHT22;48433;53.016;-2.260;2023-08-01T01:51:36;13.50;99.90
59309;DHT22;48433;53.016;-2.260;2023-08-01T01:54:04;13.50;99.90
59309;DHT22;48433;53.016;-2.260;2023-08-01T01:56:31;13.50;99.90
59309;DHT22;48433;53.016;-2.260;2023-08-01T01:59:00;13.60;99.90
59309;DHT22;48433;53.016;-2.260;2023-08-01T02:01:27;13.60;99.90
59309;DHT22;48433;53.016;-2.260;2023-08-01T02:03:55;13.60;99.90
59309;DHT22;48433;53.016;-2.260;2023-08-01T02:06:22;13.60;99.90
59309;DHT22;48433;53.016;-2.260;2023-08-01T02:08:50;13.60;99.90
59309;DHT22;48433;53.016;-2.260;2023-08-01T02:11:18;13.60;99.90
59309;DHT22;48433;53.016;-2.260;2023-08-01T02:13:45;13.60;99.90
59309;DHT22;48433;53.016;-2.260;2023-08-01T02:16:13;13.60;99.90
59309;DHT22;48433;53.016;-2.260;2023-08-01T02:18:41;13.60;99.90
59309;DHT22;48433;53.016;-2.260;2023-08-01T02:21:08;13.60;99.90
59309;DHT22;48433;53.016;-2.260;2023-08-01T02:23:36;13.70;99.90
59309;DHT22;48433;53.016;-2.260;2023-08-01T02:26:05;13.70;99.90
59309;DHT22;48433;53.016;-2.260;2023-08-01T02:28:34;13.70;99.90
59309;DHT22;48433;53.016;-2.260;2023-08-01T02:31:02;13.70;99.90
59309;DHT22;48433;53.016;-2.260;2023-08-01T02:33:30;13.70;99.90
59309;DHT22;48433;53.016;-2.260;2023-08-01T02:35:57;13.70;99.90
59309;DHT22;48433;53.016;-2.260;2023-08-01T02:38:25;13.70;99.90
59309;DHT22;48433;53.016;-2.260;2023-08-01T02:40:53;13.80;99.90
59309;DHT22;48433;53.016;-2.260;2023-08-01T02:43:20;13.80;99.90
59309;DHT22;48433;53.016;-2.260;2023-08-01T02:45:48;13.80;99.90
59309;DHT22;48433;53.016;-2.260;2023-08-01T02:48:16;13.80;99.90
59309;DHT22;48433;53.016;-2.260;2023-08-01T02:50:43;13.70;99.90
59309;DHT22;48433;53.016;-2.260;2023-08-01T02:53:11;13.80;99.90
59309;DHT22;48433;53.016;-2.260;2023-08-01T02:55:39;13.70;99.90
59309;DHT22;48433;53.016;-2.260;2023-08-01T02:58:07;13.70;99.90
59309;DHT22;48433;53.016;-2.260;2023-08-01T03:00:38;13.70;99.90
59309;DHT22;48433;53.016;-2.260;2023-08-01T03:03:07;13.70;99.90
59309;DHT22;48433;53.016;-2.260;2023-08-01T03:05:37;13.80;99.90
59309;DHT22;48433;53.016;-2.260;2023-08-01T03:08:05;13.70;99.90
59309;DHT22;48433;53.016;-2.260;2023-08-01T03:10:33;13.80;99.90
59309;DHT22;48433;53.016;-2.260;2023-08-01T03:13:03;13.80;99.90
59309;DHT22;48433;53.016;-2.260;2023-08-01T03:15:32;13.80;99.90
59309;DHT22;48433;53.016;-2.260;2023-08-01T03:17:59;13.80;99.90
59309;DHT22;48433;53.016;-2.260;2023-08-01T03:20:28;13.80;99.90
59309;DHT22;48433;53.016;-2.260;2023-08-01T03:22:56;13.80;99.90
59309;DHT22;48433;53.016;-2.260;2023-08-01T03:25:23;13.80;99.90
59309;DHT22;48433;53.016;-2.260;2023-08-01T03:27:51;13.80;99.90
59309;DHT22;48433;53.016;-2.260;2023-08-01T03:30:18;13.80;99.90
59309;DHT22;48433;53.016;-2.260;2023-08-01T03:32:47;13.80;99.90
59309;DHT22;48433;53.016;-2.260;2023-08-01T03:35:14;13.80;99.90
59309;DHT22;48433;53.016;-2.260;2023-08-01T03:37:42;13.80;99.90
59309;DHT22;48433;53.016;-2.260;2023-08-01T03:40:09;13.80;99.90
59309;DHT22;48433;53.016;-2.260;2023-08-01T03:42:37;13.80;99.90
59309;DHT22;48433;53.016;-2.260;2023-08-01T03:45:06;13.80;99.90
59309;DHT22;48433;53.016;-2.260;2023-08-01T03:47:34;13.80;99.90
59309;DHT22;48433;53.016;-2.260;2023-08-01T03:50:02;13.80;99.90
59309;DHT22;48433;53.016;-2.260;2023-08-01T03:52:30;13.80;99.90
59309;DHT22;48433;53.016;-2.260;2023-08-01T03:54:58;13.80;99.90
59309;DHT22;48433;53.016;-2.260;2023-08-01T03:57:25;13.80;99.90
59309;DHT22;48433;53.016;-2.260;2023-08-01T03:59:53;13.80;99.90
59309;DHT22;48433;53.016;-2.260;2023-08-01T04:02:21;13.70;99.90
59309;DHT22;48433;53.016;-2.260;2023-08-01T04:04:50;13.80;99.90
59309;DHT22;48433;53.016;-2.260;2023-08-01T04:07:17;13.70;99.90
59309;DHT22;48433;53.016;-2.260;2023-08-01T04:09:46;13.70;99.90
59309;DHT22;48433;53.016;-2.260;2023-08-01T04:12:13;13.70;99.90
59309;DHT22;48433;53.016;-2.260;2023-08-01T04:14:41;13.70;99.90
59309;DHT22;48433;53.016;-2.260;2023-08-01T04:17:09;13.70;99.90
59309;DHT22;48433;53.016;-2.260;2023-08-01T04:19:37;13.70;99.90
59309;DHT22;48433;53.016;-2.260;2023-08-01T04:22:04;13.70;99.90
59309;DHT22;48433;53.016;-2.260;2023-08-01T04:24:32;13.70;99.90
59309;DHT22;48433;53.016;-2.260;2023-08-01T04:27:00;13.70;99.90
59309;DHT22;48433;53.016;-2.260;2023-08-01T04:29:27;13.70;99.90
59309;DHT22;48433;53.016;-2.260;2023-08-01T04:31:55;13.70;99.90
59309;DHT22;48433;53.016;-2.260;2023-08-01T04:34:23;13.70;99.90
59309;DHT22;48433;53.016;-2.260;2023-08-01T04:36:50;13.70;99.90
59309;DHT22;48433;53.016;-2.260;2023-08-01T04:39:18;13.70;99.90
59309;DHT22;48433;53.016;-2.260;2023-08-01T04:41:46;13.70;99.90
59309;DHT22;48433;53.016;-2.260;2023-08-01T04:44:14;13.70;99.90
59309;DHT22;48433;53.016;-2.260;2023-08-01T04:46:41;13.80;99.90
59309;DHT22;48433;53.016;-2.260;2023-08-01T04:49:09;13.80;99.90
59309;DHT22;48433;53.016;-2.260;2023-08-01T04:51:37;13.80;99.90
59309;DHT22;48433;53.016;-2.260;2023-08-01T04:54:04;13.70;99.90
59309;DHT22;48433;53.016;-2.260;2023-08-01T04:56:32;13.80;99.90
59309;DHT22;48433;53.016;-2.260;2023-08-01T04:59:00;13.70;99.90
59309;DHT22;48433;53.016;-2.260;2023-08-01T05:01:29;13.70;99.90
59309;DHT22;48433;53.016;-2.260;2023-08-01T05:03:57;13.70;99.90
59309;DHT22;48433;53.016;-2.260;2023-08-01T05:06:25;13.60;99.90
59309;DHT22;48433;53.016;-2.260;2023-08-01T05:08:53;13.60;99.90
59309;DHT22;48433;53.016;-2.260;2023-08-01T05:11:20;13.60;99.90
59309;DHT22;48433;53.016;-2.260;2023-08-01T05:13:48;13.60;99.90
59309;DHT22;48433;53.016;-2.260;2023-08-01T05:16:16;13.60;99.90
59309;DHT22;48433;53.016;-2.260;2023-08-01T05:18:44;13.60;99.90
59309;DHT22;48433;53.016;-2.260;2023-08-01T05:21:11;13.50;99.90
59309;DHT22;48433;53.016;-2.260;2023-08-01T05:23:39;13.60;99.90
59309;DHT22;48433;53.016;-2.260;2023-08-01T05:26:06;13.50;99.90
59309;DHT22;48433;53.016;-2.260;2023-08-01T05:28:34;13.50;99.90
59309;DHT22;48433;53.016;-2.260;2023-08-01T05:31:02;13.50;99.90
59309;DHT22;48433;53.016;-2.260;2023-08-01T05:33:29;13.50;99.90
59309;DHT22;48433;53.016;-2.260;2023-08-01T05:35:57;13.50;99.90
59309;DHT22;48433;53.016;-2.260;2023-08-01T05:38:25;13.50;99.90
59309;DHT22;48433;53.016;-2.260;2023-08-01T05:40:52;13.50;99.90
59309;DHT22;48433;53.016;-2.260;2023-08-01T05:43:20;13.50;99.90
59309;DHT22;48433;53.016;-2.260;2023-08-01T05:45:47;13.50;99.90
59309;DHT22;48433;53.016;-2.260;2023-08-01T05:48:18;13.50;99.90
59309;DHT22;48433;53.016;-2.260;2023-08-01T05:50:46;13.50;99.90
59309;DHT22;48433;53.016;-2.260;2023-08-01T05:53:14;13.60;99.90
59309;DHT22;48433;53.016;-2.260;2023-08-01T05:55:41;13.60;99.90
59309;DHT22;48433;53.016;-2.260;2023-08-01T05:58:09;13.60;99.90
59309;DHT22;48433;53.016;-2.260;2023-08-01T06:00:37;13.70;99.90
59309;DHT22;48433;53.016;-2.260;2023-08-01T06:03:05;13.60;99.90
59309;DHT22;48433;53.016;-2.260;2023-08-01T06:05:32;13.70;99.90
59309;DHT22;48433;53.016;-2.260;2023-08-01T06:08:00;13.80;99.90
59309;DHT22;48433;53.016;-2.260;2023-08-01T06:10:27;13.80;99.90
59309;DHT22;48433;53.016;-2.260;2023-08-01T06:12:55;13.80;99.90
59309;DHT22;48433;53.016;-2.260;2023-08-01T06:15:23;13.90;99.90
59309;DHT22;48433;53.016;-2.260;2023-08-01T06:17:50;14.00;99.90
59309;DHT22;48433;53.016;-2.260;2023-08-01T06:20:18;14.00;99.90
59309;DHT22;48433;53.016;-2.260;2023-08-01T06:22:46;14.10;99.90
59309;DHT22;48433;53.016;-2.260;2023-08-01T06:25:13;14.20;99.90
59309;DHT22;48433;53.016;-2.260;2023-08-01T06:27:41;14.20;99.90
59309;DHT22;48433;53.016;-2.260;2023-08-01T06:30:09;14.30;99.90
59309;DHT22;48433;53.016;-2.260;2023-08-01T06:32:37;14.40;99.90
59309;DHT22;48433;53.016;-2.260;2023-08-01T06:35:06;14.50;99.90
59309;DHT22;48433;53.016;-2.260;2023-08-01T06:37:33;14.70;99.90
59309;DHT22;48433;53.016;-2.260;2023-08-01T06:40:01;14.70;99.90
59309;DHT22;48433;53.016;-2.260;2023-08-01T06:42:29;14.70;99.90
59309;DHT22;48433;53.016;-2.260;2023-08-01T06:44:57;14.80;99.90
59309;DHT22;48433;53.016;-2.260;2023-08-01T06:47:25;14.80;99.90
59309;DHT22;48433;53.016;-2.260;2023-08-01T06:49:52;14.90;99.90
59309;DHT22;48433;53.016;-2.260;2023-08-01T06:52:20;15.00;99.90
59309;DHT22;48433;53.016;-2.260;2023-08-01T06:54:47;15.10;99.90
59309;DHT22;48433;53.016;-2.260;2023-08-01T06:57:15;15.10;99.90
59309;DHT22;48433;53.016;-2.260;2023-08-01T06:59:43;15.10;99.90
59309;DHT22;48433;53.016;-2.260;2023-08-01T07:02:11;15.10;99.90
59309;DHT22;48433;53.016;-2.260;2023-08-01T07:04:39;15.10;99.90
59309;DHT22;48433;53.016;-2.260;2023-08-01T07:07:06;15.20;99.90
59309;DHT22;48433;53.016;-2.260;2023-08-01T07:09:36;15.20;99.90
59309;DHT22;48433;53.016;-2.260;2023-08-01T07:12:05;15.20;99.90
59309;DHT22;48433;53.016;-2.260;2023-08-01T07:14:32;15.20;99.90
59309;DHT22;48433;53.016;-2.260;2023-08-01T07:17:00;15.20;99.90
59309;DHT22;48433;53.016;-2.260;2023-08-01T07:19:28;15.20;99.90
59309;DHT22;48433;53.016;-2.260;2023-08-01T07:21:55;15.10;99.90
59309;DHT22;48433;53.016;-2.260;2023-08-01T07:24:25;15.20;99.90
59309;DHT22;48433;53.016;-2.260;2023-08-01T07:26:55;15.20;99.90
59309;DHT22;48433;53.016;-2.260;2023-08-01T07:29:23;15.20;99.90
59309;DHT22;48433;53.016;-2.260;2023-08-01T07:31:51;15.20;99.90
59309;DHT22;48433;53.016;-2.260;2023-08-01T07:34:18;15.20;99.90
59309;DHT22;48433;53.016;-2.260;2023-08-01T07:36:50;15.20;99.90
59309;DHT22;48433;53.016;-2.260;2023-08-01T07:39:18;15.30;99.90
59309;DHT22;48433;53.016;-2.260;2023-08-01T07:41:45;15.50;99.90
59309;DHT22;48433;53.016;-2.260;2023-08-01T07:44:13;15.50;99.90
59309;DHT22;48433;53.016;-2.260;2023-08-01T07:46:40;15.50;99.90
59309;DHT22;48433;53.016;-2.260;2023-08-01T07:49:08;15.50;99.90
59309;DHT22;48433;53.016;-2.260;2023-08-01T07:51:36;15.60;99.90
59309;DHT22;48433;53.016;-2.260;2023-08-01T07:54:04;15.60;99.90
59309;DHT22;48433;53.016;-2.260;2023-08-01T07:56:31;15.70;99.90
59309;DHT22;48433;53.016;-2.260;2023-08-01T07:58:59;15.70;99.90
59309;DHT22;48433;53.016;-2.260;2023-08-01T08:01:27;15.80;99.90
59309;DHT22;48433;53.016;-2.260;2023-08-01T08:03:54;15.90;99.90
59309;DHT22;48433;53.016;-2.260;2023-08-01T08:06:22;16.00;99.90
59309;DHT22;48433;53.016;-2.260;2023-08-01T08:08:51;16.10;99.90
59309;DHT22;48433;53.016;-2.260;2023-08-01T08:11:18;16.30;99.90
59309;DHT22;48433;53.016;-2.260;2023-08-01T08:13:46;16.30;99.90
59309;DHT22;48433;53.016;-2.260;2023-08-01T08:16:13;16.40;99.90
59309;DHT22;48433;53.016;-2.260;2023-08-01T08:18:41;16.40;99.90
59309;DHT22;48433;53.016;-2.260;2023-08-01T08:21:09;16.40;99.90
59309;DHT22;48433;53.016;-2.260;2023-08-01T08:23:38;16.40;99.90
59309;DHT22;48433;53.016;-2.260;2023-08-01T08:26:05;16.30;99.90
59309;DHT22;48433;53.016;-2.260;2023-08-01T08:28:34;16.30;99.90
59309;DHT22;48433;53.016;-2.260;2023-08-01T08:31:02;16.20;99.90
59309;DHT22;48433;53.016;-2.260;2023-08-01T08:33:31;16.20;99.90
59309;DHT22;48433;53.016;-2.260;2023-08-01T08:35:58;16.20;99.90
59309;DHT22;48433;53.016;-2.260;2023-08-01T08:38:26;16.30;99.90
59309;DHT22;48433;53.016;-2.260;2023-08-01T08:43:35;16.40;99.90
59309;DHT22;48433;53.016;-2.260;2023-08-01T08:46:04;16.50;99.90
59309;DHT22;48433;53.016;-2.260;2023-08-01T08:48:33;16.50;99.90
59309;DHT22;48433;53.016;-2.260;2023-08-01T08:51:02;16.70;99.90
59309;DHT22;48433;53.016;-2.260;2023-08-01T08:53:31;16.70;99.90
59309;DHT22;48433;53.016;-2.260;2023-08-01T08:56:01;16.90;99.90
59309;DHT22;48433;53.016;-2.260;2023-08-01T08:58:29;17.30;99.90
59309;DHT22;48433;53.016;-2.260;2023-08-01T09:01:02;17.80;99.90
59309;DHT22;48433;53.016;-2.260;2023-08-01T09:03:30;17.80;99.90
59309;DHT22;48433;53.016;-2.260;2023-08-01T09:06:06;17.80;99.90
59309;DHT22;48433;53.016;-2.260;2023-08-01T09:08:36;17.70;99.90
59309;DHT22;48433;53.016;-2.260;2023-08-01T09:11:04;17.70;99.90
59309;DHT22;48433;53.016;-2.260;2023-08-01T09:13:32;17.70;99.90
59309;DHT22;48433;53.016;-2.260;2023-08-01T09:16:02;17.70;99.90
59309;DHT22;48433;53.016;-2.260;2023-08-01T09:18:32;17.70;99.90
59309;DHT22;48433;53.016;-2.260;2023-08-01T09:21:00;17.70;99.90
59309;DHT22;48433;53.016;-2.260;2023-08-01T09:23:31;17.70;99.90
59309;DHT22;48433;53.016;-2.260;2023-08-01T09:25:59;17.70;99.90
59309;DHT22;48433;53.016;-2.260;2023-08-01T09:28:27;17.70;99.90
59309;DHT22;48433;53.016;-2.260;2023-08-01T09:30:55;17.50;99.90
59309;DHT22;48433;53.016;-2.260;2023-08-01T09:33:25;17.50;99.90
59309;DHT22;48433;53.016;-2.260;2023-08-01T09:35:52;17.40;99.90
59309;DHT22;48433;53.016;-2.260;2023-08-01T09:38:20;17.50;99.90
59309;DHT22;48433;53.016;-2.260;2023-08-01T09:40:48;18.00;99.90
59309;DHT22;48433;53.016;-2.260;2023-08-01T09:43:16;18.00;99.90
59309;DHT22;48433;53.016;-2.260;2023-08-01T09:45:53;18.30;99.90
59309;DHT22;48433;53.016;-2.260;2023-08-01T09:48:30;18.60;99.90
59309;DHT22;48433;53.016;-2.260;2023-08-01T09:51:08;18.80;99.90
59309;DHT22;48433;53.016;-2.260;2023-08-01T09:56:19;18.80;99.90
59309;DHT22;48433;53.016;-2.260;2023-08-01T09:58:49;18.60;99.90
59309;DHT22;48433;53.016;-2.260;2023-08-01T10:01:19;18.30;99.90
59309;DHT22;48433;53.016;-2.260;2023-08-01T10:03:49;18.30;99.90
59309;DHT22;48433;53.016;-2.260;2023-08-01T10:06:21;18.10;99.90
59309;DHT22;48433;53.016;-2.260;2023-08-01T10:08:51;18.00;99.90
59309;DHT22;48433;53.016;-2.260;2023-08-01T10:11:22;17.80;99.90
59309;DHT22;48433;53.016;-2.260;2023-08-01T10:13:50;17.80;99.90
59309;DHT22;48433;53.016;-2.260;2023-08-01T10:16:18;18.10;99.90
59309;DHT22;48433;53.016;-2.260;2023-08-01T10:18:45;18.50;99.90
59309;DHT22;48433;53.016;-2.260;2023-08-01T10:21:15;18.90;99.90
59309;DHT22;48433;53.016;-2.260;2023-08-01T10:23:45;18.90;99.90
59309;DHT22;48433;53.016;-2.260;2023-08-01T10:26:14;19.00;99.90
59309;DHT22;48433;53.016;-2.260;2023-08-01T10:28:50;19.10;99.90
59309;DHT22;48433;53.016;-2.260;2023-08-01T10:31:19;19.20;99.90
59309;DHT22;48433;53.016;-2.260;2023-08-01T10:33:48;19.20;99.90
59309;DHT22;48433;53.016;-2.260;2023-08-01T10:38:47;19.10;99.90
59309;DHT22;48433;53.016;-2.260;2023-08-01T10:41:34;19.20;99.90
59309;DHT22;48433;53.016;-2.260;2023-08-01T10:44:14;19.20;99.90
59309;DHT22;48433;53.016;-2.260;2023-08-01T10:47:02;19.20;99.90
59309;DHT22;48433;53.016;-2.260;2023-08-01T10:49:48;19.10;99.90
59309;DHT22;48433;53.016;-2.260;2023-08-01T10:52:22;19.00;99.90
59309;DHT22;48433;53.016;-2.260;2023-08-01T10:55:03;19.00;99.90
59309;DHT22;48433;53.016;-2.260;2023-08-01T10:57:35;18.90;99.90
59309;DHT22;48433;53.016;-2.260;2023-08-01T11:00:04;18.90;99.90
59309;DHT22;48433;53.016;-2.260;2023-08-01T11:02:37;18.90;99.90
59309;DHT22;48433;53.016;-2.260;2023-08-01T11:05:06;19.00;99.90
59309;DHT22;48433;53.016;-2.260;2023-08-01T11:07:34;19.40;99.90
59309;DHT22;48433;53.016;-2.260;2023-08-01T11:10:13;19.90;99.90
59309;DHT22;48433;53.016;-2.260;2023-08-01T11:12:43;20.10;99.90
59309;DHT22;48433;53.016;-2.260;2023-08-01T11:15:12;20.00;99.90
59309;DHT22;48433;53.016;-2.260;2023-08-01T11:17:50;20.00;99.90
59309;DHT22;48433;53.016;-2.260;2023-08-01T11:20:21;19.80;99.90
59309;DHT22;48433;53.016;-2.260;2023-08-01T11:25:38;19.60;99.90
59309;DHT22;48433;53.016;-2.260;2023-08-01T11:28:08;19.60;99.90
59309;DHT22;48433;53.016;-2.260;2023-08-01T11:30:36;19.70;99.90
59309;DHT22;48433;53.016;-2.260;2023-08-01T11:33:23;19.80;99.90
59309;DHT22;48433;53.016;-2.260;2023-08-01T11:35:52;19.80;99.90
59309;DHT22;48433;53.016;-2.260;2023-08-01T11:38:22;19.70;99.90
59309;DHT22;48433;53.016;-2.260;2023-08-01T11:40:51;19.60;99.90
59309;DHT22;48433;53.016;-2.260;2023-08-01T11:43:19;19.50;99.90
59309;DHT22;48433;53.016;-2.260;2023-08-01T11:48:18;19.40;99.90
59309;DHT22;48433;53.016;-2.260;2023-08-01T11:50:46;19.40;99.90
59309;DHT22;48433;53.016;-2.260;2023-08-01T11:53:21;19.80;99.90
59309;DHT22;48433;53.016;-2.260;2023-08-01T11:55:50;20.30;99.90
59309;DHT22;48433;53.016;-2.260;2023-08-01T11:58:37;20.70;99.90
59309;DHT22;48433;53.016;-2.260;2023-08-01T12:01:12;20.70;99.90
59309;DHT22;48433;53.016;-2.260;2023-08-01T12:03:54;20.60;99.90
59309;DHT22;48433;53.016;-2.260;2023-08-01T12:06:23;20.40;99.90
59309;DHT22;48433;53.016;-2.260;2023-08-01T12:08:51;20.10;99.90
59309;DHT22;48433;53.016;-2.260;2023-08-01T12:11:24;19.60;99.90
59309;DHT22;48433;53.016;-2.260;2023-08-01T12:16:32;19.20;99.90
59309;DHT22;48433;53.016;-2.260;2023-08-01T12:18:59;19.00;99.90
59309;DHT22;48433;53.016;-2.260;2023-08-01T12:21:29;18.90;99.90
59309;DHT22;48433;53.016;-2.260;2023-08-01T12:23:57;18.80;99.90
59309;DHT22;48433;53.016;-2.260;2023-08-01T12:26:24;18.80;99.90
59309;DHT22;48433;53.016;-2.260;2023-08-01T12:28:52;18.90;99.90
59309;DHT22;48433;53.016;-2.260;2023-08-01T12:31:21;19.00;99.90
59309;DHT22;48433;53.016;-2.260;2023-08-01T12:33:49;19.00;99.90
59309;DHT22;48433;53.016;-2.260;2023-08-01T12:36:17;19.30;99.90
59309;DHT22;48433;53.016;-2.260;2023-08-01T12:38:45;19.60;99.90
59309;DHT22;48433;53.016;-2.260;2023-08-01T12:41:12;20.20;99.90
59309;DHT22;48433;53.016;-2.260;2023-08-01T12:43:40;20.20;99.90
59309;DHT22;48433;53.016;-2.260;2023-08-01T12:46:07;20.30;99.90
59309;DHT22;48433;53.016;-2.260;2023-08-01T12:48:35;20.30;99.90
59309;DHT22;48433;53.016;-2.260;2023-08-01T12:51:02;19.70;99.90
59309;DHT22;48433;53.016;-2.260;2023-08-01T12:53:30;19.70;99.90
59309;DHT22;48433;53.016;-2.260;2023-08-01T12:56:04;19.40;99.90
59309;DHT22;48433;53.016;-2.260;2023-08-01T12:58:31;19.10;99.90
59309;DHT22;48433;53.016;-2.260;2023-08-01T13:01:01;18.60;99.90
59309;DHT22;48433;53.016;-2.260;2023-08-01T13:03:29;18.60;99.90
59309;DHT22;48433;53.016;-2.260;2023-08-01T13:05:58;18.50;99.90
59309;DHT22;48433;53.016;-2.260;2023-08-01T13:08:26;18.40;99.90
59309;DHT22;48433;53.016;-2.260;2023-08-01T13:10:53;18.50;99.90
59309;DHT22;48433;53.016;-2.260;2023-08-01T13:13:21;18.40;99.90
59309;DHT22;48433;53.016;-2.260;2023-08-01T13:15:49;18.50;99.90
59309;DHT22;48433;53.016;-2.260;2023-08-01T13:18:16;18.60;99.90
59309;DHT22;48433;53.016;-2.260;2023-08-01T13:20:45;18.90;99.90
59309;DHT22;48433;53.016;-2.260;2023-08-01T13:23:12;19.10;99.90
59309;DHT22;48433;53.016;-2.260;2023-08-01T13:25:40;19.30;99.90
59309;DHT22;48433;53.016;-2.260;2023-08-01T13:28:08;19.40;99.90
59309;DHT22;48433;53.016;-2.260;2023-08-01T13:30:35;19.40;99.90
59309;DHT22;48433;53.016;-2.260;2023-08-01T13:33:03;19.40;99.90
59309;DHT22;48433;53.016;-2.260;2023-08-01T13:35:31;19.40;99.90
59309;DHT22;48433;53.016;-2.260;2023-08-01T13:37:58;19.30;99.90
59309;DHT22;48433;53.016;-2.260;2023-08-01T13:40:26;19.20;99.90
59309;DHT22;48433;53.016;-2.260;2023-08-01T13:42:53;19.20;99.90
59309;DHT22;48433;53.016;-2.260;2023-08-01T13:45:21;19.20;99.90
59309;DHT22;48433;53.016;-2.260;2023-08-01T13:47:49;19.10;99.90
59309;DHT22;48433;53.016;-2.260;2023-08-01T13:50:16;19.10;99.90
59309;DHT22;48433;53.016;-2.260;2023-08-01T13:52:44;19.10;99.90
59309;DHT22;48433;53.016;-2.260;2023-08-01T13:55:11;19.10;99.90
59309;DHT22;48433;53.016;-2.260;2023-08-01T13:57:39;19.10;99.90
59309;DHT22;48433;53.016;-2.260;2023-08-01T14:00:07;19.00;99.90
59309;DHT22;48433;53.016;-2.260;2023-08-01T14:02:43;19.00;99.90
59309;DHT22;48433;53.016;-2.260;2023-08-01T14:05:11;19.10;99.90
59309;DHT22;48433;53.016;-2.260;2023-08-01T14:07:38;19.10;99.90
59309;DHT22;48433;53.016;-2.260;2023-08-01T14:10:10;19.10;99.90
59309;DHT22;48433;53.016;-2.260;2023-08-01T14:12:38;19.20;99.90
59309;DHT22;48433;53.016;-2.260;2023-08-01T14:15:06;19.20;99.90
59309;DHT22;48433;53.016;-2.260;2023-08-01T14:17:34;19.10;99.90
59309;DHT22;48433;53.016;-2.260;2023-08-01T14:20:02;19.00;99.90
59309;DHT22;48433;53.016;-2.260;2023-08-01T14:22:33;18.90;99.90
59309;DHT22;48433;53.016;-2.260;2023-08-01T14:25:01;18.80;99.90
59309;DHT22;48433;53.016;-2.260;2023-08-01T14:27:29;18.80;99.90
59309;DHT22;48433;53.016;-2.260;2023-08-01T14:29:56;18.80;99.90
59309;DHT22;48433;53.016;-2.260;2023-08-01T14:32:24;18.90;99.90
59309;DHT22;48433;53.016;-2.260;2023-08-01T14:34:52;18.90;99.90
59309;DHT22;48433;53.016;-2.260;2023-08-01T14:37:20;19.00;99.90
59309;DHT22;48433;53.016;-2.260;2023-08-01T14:39:51;19.00;99.90
59309;DHT22;48433;53.016;-2.260;2023-08-01T14:42:19;19.20;99.90
59309;DHT22;48433;53.016;-2.260;2023-08-01T14:44:53;19.30;99.90
59309;DHT22;48433;53.016;-2.260;2023-08-01T14:47:21;19.50;99.90
59309;DHT22;48433;53.016;-2.260;2023-08-01T14:49:49;19.80;99.90
59309;DHT22;48433;53.016;-2.260;2023-08-01T14:52:17;20.30;99.90
59309;DHT22;48433;53.016;-2.260;2023-08-01T14:54:52;20.60;99.90
59309;DHT22;48433;53.016;-2.260;2023-08-01T14:57:19;21.60;99.90
59309;DHT22;48433;53.016;-2.260;2023-08-01T14:59:47;22.60;99.90
59309;DHT22;48433;53.016;-2.260;2023-08-01T15:02:15;23.90;99.90
59309;DHT22;48433;53.016;-2.260;2023-08-01T15:04:43;24.10;99.90
59309;DHT22;48433;53.016;-2.260;2023-08-01T15:07:11;24.70;99.90
59309;DHT22;48433;53.016;-2.260;2023-08-01T15:09:42;24.80;99.60
59309;DHT22;48433;53.016;-2.260;2023-08-01T15:12:10;24.20;98.10
59309;DHT22;48433;53.016;-2.260;2023-08-01T15:14:38;24.00;98.50
59309;DHT22;48433;53.016;-2.260;2023-08-01T15:17:05;23.40;99.30
59309;DHT22;48433;53.016;-2.260;2023-08-01T15:19:33;22.90;99.50
59309;DHT22;48433;53.016;-2.260;2023-08-01T15:22:01;22.00;99.90
59309;DHT22;48433;53.016;-2.260;2023-08-01T15:24:32;21.90;99.90
59309;DHT22;48433;53.016;-2.260;2023-08-01T15:26:59;21.60;99.90
59309;DHT22;48433;53.016;-2.260;2023-08-01T15:29:27;21.40;99.90
59309;DHT22;48433;53.016;-2.260;2023-08-01T15:31:55;21.30;99.90
59309;DHT22;48433;53.016;-2.260;2023-08-01T15:34:22;21.20;99.90
59309;DHT22;48433;53.016;-2.260;2023-08-01T15:36:50;21.10;99.90
59309;DHT22;48433;53.016;-2.260;2023-08-01T15:39:18;21.00;99.90